createdAt,value
2019-04-06T00:01:39.923Z,94.30
2019-04-06T00:04:09.930Z,94.30
2019-04-06T00:06:39.950Z,94.30
2019-04-06T00:09:09.946Z,94.40
2019-04-06T00:11:39.978Z,94.30
2019-04-06T00:14:09.976Z,94.30
2019-04-06T00:16:39.998Z,94.40
2019-04-06T00:19:09.999Z,94.40
2019-04-06T00:21:40.015Z,94.40
2019-04-06T00:24:10.019Z,94.30
2019-04-06T00:26:40.019Z,94.30
2019-04-06T00:29:10.062Z,94.40
2019-04-06T00:32:00.982Z,94.50
2019-04-06T00:34:31.018Z,94.50
2019-04-06T00:37:01.030Z,94.60
2019-04-06T00:39:31.095Z,94.60
2019-04-06T00:42:01.231Z,94.60
2019-04-06T00:44:31.514Z,94.60
2019-04-06T00:47:01.614Z,94.60
2019-04-06T00:49:31.651Z,94.60
2019-04-06T00:52:01.778Z,94.60
2019-04-06T00:54:31.825Z,94.60
2019-04-06T00:57:02.115Z,95.10
2019-04-06T00:59:33.153Z,94.70
2019-04-06T01:02:03.936Z,94.70
2019-04-06T01:04:33.949Z,94.70
2019-04-06T01:07:04.018Z,94.80
2019-04-06T01:09:34.038Z,94.50
2019-04-06T01:12:04.039Z,94.50
2019-04-06T01:14:35.127Z,94.40
2019-04-06T01:17:05.183Z,94.40
2019-04-06T01:19:35.198Z,94.30
2019-04-06T01:22:05.242Z,94.40
2019-04-06T01:24:35.255Z,94.30
2019-04-06T01:27:05.304Z,94.30
2019-04-06T01:29:35.391Z,94.30
2019-04-06T01:32:05.453Z,94.20
2019-04-06T01:34:35.562Z,94.30
2019-04-06T01:37:05.747Z,94.30
2019-04-06T01:39:35.802Z,94.20
2019-04-06T01:42:05.937Z,94.20
2019-04-06T01:44:36.057Z,94.20
2019-04-06T01:47:06.044Z,94.30
2019-04-06T01:49:36.064Z,94.30
2019-04-06T01:52:06.059Z,94.30
2019-04-06T01:54:36.078Z,94.40
2019-04-06T01:57:06.065Z,94.40
2019-04-06T01:59:36.094Z,94.40
2019-04-06T02:07:44.647Z,94.50
2019-04-06T02:10:14.971Z,94.60
2019-04-06T02:12:44.974Z,94.80
2019-04-06T02:15:14.943Z,95.00
2019-04-06T02:17:44.938Z,95.10
2019-04-06T02:20:14.966Z,95.30
2019-04-06T02:22:44.955Z,95.40
2019-04-06T02:25:16.038Z,95.40
2019-04-06T02:27:46.015Z,95.30
2019-04-06T02:30:26.635Z,95.40
2019-04-06T02:33:14.173Z,95.40
2019-04-06T02:36:05.361Z,95.40
2019-04-06T02:38:50.411Z,95.40
2019-04-06T02:41:38.163Z,95.40
2019-04-06T02:44:08.270Z,95.50
2019-04-06T02:46:38.324Z,95.50
2019-04-06T02:49:08.415Z,95.30
2019-04-06T02:51:38.512Z,95.30
2019-04-06T02:54:08.891Z,95.40
2019-04-06T02:56:46.141Z,95.30
2019-04-06T02:59:10.638Z,95.40
2019-04-06T03:01:40.668Z,95.40
2019-04-06T03:04:10.662Z,95.40
2019-04-06T03:06:40.735Z,95.40
2019-04-06T03:09:11.708Z,95.30
2019-04-06T03:11:42.214Z,95.20
2019-04-06T03:14:12.287Z,95.20
2019-04-06T03:16:42.495Z,95.20
2019-04-06T03:19:12.524Z,95.20
2019-04-06T03:21:42.612Z,95.10
2019-04-06T03:24:12.703Z,95.10
2019-04-06T03:26:42.711Z,95.10
2019-04-06T03:29:12.703Z,95.30
2019-04-06T03:31:42.729Z,95.40
2019-04-06T03:34:13.019Z,95.50
2019-04-06T03:36:43.472Z,95.60
2019-04-06T03:39:13.501Z,95.70
2019-04-06T03:41:43.513Z,95.80
2019-04-06T03:44:13.500Z,96.10
2019-04-06T03:46:43.502Z,96.10
2019-04-06T03:49:13.503Z,96.20
2019-04-06T03:51:43.510Z,96.30
2019-04-06T03:54:13.502Z,96.50
2019-04-06T03:56:43.499Z,96.60
2019-04-06T03:59:14.038Z,96.70
2019-04-06T04:01:44.169Z,96.80
2019-04-06T04:04:14.411Z,96.80
2019-04-06T04:06:44.550Z,96.90
2019-04-06T04:09:15.180Z,96.90
2019-04-06T04:11:45.266Z,96.90
2019-04-06T04:14:15.338Z,96.80
2019-04-06T04:16:45.352Z,96.80
2019-04-06T04:19:15.512Z,96.90
2019-04-06T04:21:45.522Z,97.00
2019-04-06T04:24:15.592Z,97.10
2019-04-06T04:26:45.662Z,97.00
2019-04-06T04:29:15.822Z,97.00
2019-04-06T04:31:45.939Z,97.00
2019-04-06T04:34:15.961Z,97.20
2019-04-06T04:36:46.047Z,97.30
2019-04-06T04:39:16.144Z,97.30
2019-04-06T04:41:46.280Z,97.30
2019-04-06T04:44:16.305Z,97.30
2019-04-06T04:46:46.351Z,97.30
2019-04-06T04:49:16.655Z,97.30
2019-04-06T04:51:46.831Z,97.30
2019-04-06T04:54:16.850Z,97.20
2019-04-06T04:56:46.847Z,97.20
2019-04-06T04:59:16.869Z,97.30
2019-04-06T05:01:46.861Z,97.30
2019-04-06T05:04:16.866Z,97.50
2019-04-06T05:06:46.858Z,97.60
2019-04-06T05:09:16.874Z,97.80
2019-04-06T05:11:48.963Z,97.80
2019-04-06T05:14:54.596Z,98.30
2019-04-06T05:17:25.339Z,97.80
2019-04-06T05:19:55.657Z,97.60
2019-04-06T05:22:25.754Z,97.50
2019-04-06T05:24:56.047Z,97.30
2019-04-06T05:27:26.054Z,97.20
2019-04-06T05:29:56.042Z,97.00
2019-04-06T05:32:26.071Z,96.80
2019-04-06T05:34:57.991Z,96.80
2019-04-06T05:37:28.845Z,96.70
2019-04-06T05:39:59.994Z,97.00
2019-04-06T05:42:30.099Z,96.40
2019-04-06T05:45:00.103Z,96.30
2019-04-06T05:47:31.162Z,96.20
2019-04-06T05:50:01.171Z,95.90
2019-04-06T05:52:31.147Z,95.60
2019-04-06T05:55:01.174Z,95.30
2019-04-06T05:57:32.358Z,94.90
2019-04-06T06:00:02.969Z,94.60
2019-04-06T06:02:33.017Z,94.40
2019-04-06T06:05:03.031Z,94.30
2019-04-06T06:07:33.122Z,94.10
2019-04-06T06:10:03.348Z,93.80
2019-04-06T06:12:33.508Z,93.40
2019-04-06T06:15:03.634Z,93.10
2019-04-06T06:17:33.622Z,93.00
2019-04-06T06:20:03.727Z,92.60
2019-04-06T06:22:34.823Z,92.30
2019-04-06T06:25:05.386Z,92.10
2019-04-06T06:27:35.456Z,92.00
2019-04-06T06:30:06.750Z,91.80
2019-04-06T06:32:36.826Z,91.60
2019-04-06T06:35:07.274Z,91.50
2019-04-06T06:37:37.347Z,91.30
2019-04-06T06:40:08.279Z,91.00
2019-04-06T06:42:38.390Z,90.70
2019-04-06T06:45:10.140Z,90.10
2019-04-06T06:47:40.134Z,90.00
2019-04-06T06:50:10.250Z,88.60
2019-04-06T06:52:40.248Z,87.90
2019-04-06T06:55:10.354Z,88.10
2019-04-06T06:57:40.414Z,87.60
2019-04-06T07:00:10.688Z,87.50
2019-04-06T07:02:40.759Z,87.10
2019-04-06T07:05:10.892Z,87.40
2019-04-06T07:07:40.982Z,87.00
2019-04-06T07:10:11.104Z,86.80
2019-04-06T07:12:41.347Z,86.50
2019-04-06T07:15:11.579Z,85.00
2019-04-06T07:17:41.590Z,85.10
2019-04-06T07:20:11.807Z,84.60
2019-04-06T07:25:40.479Z,83.10
2019-04-06T07:28:10.562Z,81.20
2019-04-06T07:30:40.633Z,78.60
2019-04-06T07:33:10.766Z,76.40
2019-04-06T07:35:41.942Z,76.40
2019-04-06T07:38:11.930Z,76.50
2019-04-06T07:40:41.974Z,75.70
2019-04-06T07:43:11.984Z,73.80
2019-04-06T07:45:43.144Z,73.10
2019-04-06T07:48:13.234Z,72.80
2019-04-06T07:50:43.262Z,70.80
2019-04-06T07:53:13.334Z,68.10
2019-04-06T07:55:43.375Z,63.30
2019-04-06T07:58:13.375Z,60.10
2019-04-06T08:00:43.504Z,57.20
2019-04-06T08:03:13.755Z,54.30
2019-04-06T08:05:43.922Z,51.20
2019-04-06T08:08:14.110Z,48.20
2019-04-06T08:10:44.215Z,47.80
2019-04-06T08:13:14.243Z,45.60
2019-04-06T08:15:44.299Z,43.20
2019-04-06T08:18:14.368Z,43.00
2019-04-06T08:20:44.907Z,43.30
2019-04-06T08:23:16.226Z,44.20
2019-04-06T08:25:46.692Z,43.60
2019-04-06T08:28:16.764Z,41.30
2019-04-06T08:30:47.194Z,40.10
2019-04-06T08:33:17.510Z,41.30
2019-04-06T08:35:47.585Z,40.20
2019-04-06T08:38:17.667Z,41.60
2019-04-06T08:40:47.819Z,41.50
2019-04-06T08:43:17.824Z,38.90
2019-04-06T08:45:48.169Z,38.10
2019-04-06T08:48:18.327Z,36.80
2019-04-06T08:50:48.375Z,37.60
2019-04-06T08:53:18.469Z,38.80
2019-04-06T08:55:48.577Z,40.20
2019-04-06T08:58:18.731Z,40.60
2019-04-06T09:00:49.129Z,40.10
2019-04-06T09:03:19.246Z,39.30
2019-04-06T09:05:49.282Z,37.70
2019-04-06T09:08:19.311Z,36.80
2019-04-06T09:10:49.426Z,39.00
2019-04-06T09:13:19.548Z,40.50
2019-04-06T09:15:49.561Z,40.70
2019-04-06T09:18:19.579Z,40.80
2019-04-06T09:20:49.578Z,41.10
2019-04-06T09:23:19.675Z,38.30
2019-04-06T09:25:49.745Z,37.60
2019-04-06T09:28:19.754Z,36.70
2019-04-06T09:30:49.754Z,36.60
2019-04-06T09:33:19.840Z,37.50
2019-04-06T09:35:50.113Z,38.30
2019-04-06T09:38:20.238Z,38.60
2019-04-06T09:40:50.944Z,38.50
2019-04-06T09:43:21.098Z,40.40
2019-04-06T09:46:13.475Z,42.80
2019-04-06T09:49:14.844Z,44.60
2019-04-06T09:52:06.934Z,45.50
2019-04-06T09:54:58.806Z,47.20
2019-04-06T09:57:35.232Z,47.70
2019-04-06T10:00:39.630Z,48.90
2019-04-06T10:03:34.652Z,50.00
2019-04-06T10:06:25.950Z,50.50
2019-04-06T10:09:24.303Z,50.60
2019-04-06T10:12:12.338Z,51.10
2019-04-06T10:14:53.467Z,53.40
2019-04-06T10:17:42.625Z,52.20
2019-04-06T10:20:37.843Z,50.90
2019-04-06T10:23:29.075Z,49.90
2019-04-06T10:26:21.115Z,51.00
2019-04-06T10:29:04.531Z,50.10
2019-04-06T10:31:51.716Z,50.00
2019-04-06T10:34:44.077Z,50.70
2019-04-06T10:37:33.019Z,50.70
2019-04-06T10:40:33.999Z,50.90
2019-04-06T10:43:25.873Z,52.60
2019-04-06T10:46:16.011Z,51.40
2019-04-06T10:48:55.246Z,51.00
2019-04-06T10:51:35.799Z,50.50
2019-04-06T10:54:30.971Z,49.80
2019-04-06T10:57:29.129Z,49.60
2019-04-06T11:00:08.125Z,50.60
2019-04-06T11:03:12.647Z,50.10
2019-04-06T11:06:04.667Z,50.50
2019-04-06T11:08:56.873Z,50.20
2019-04-06T11:11:40.326Z,49.90
2019-04-06T11:14:44.771Z,50.20
2019-04-06T11:17:27.594Z,50.00
2019-04-06T11:20:35.154Z,51.40
2019-04-06T11:23:23.427Z,50.30
2019-04-06T11:26:08.310Z,52.40
2019-04-06T11:29:15.841Z,51.50
2019-04-06T11:32:07.713Z,51.00
2019-04-06T11:34:55.282Z,51.10
2019-04-06T11:37:36.126Z,50.90
2019-04-06T11:40:22.763Z,50.00
2019-04-06T11:43:14.872Z,50.30
2019-04-06T11:46:13.107Z,50.80
2019-04-06T11:49:02.579Z,51.30
2019-04-06T11:51:45.887Z,50.50
2019-04-06T11:54:33.610Z,49.90
2019-04-06T11:57:25.586Z,48.00
2019-04-06T12:00:24.450Z,47.70
2019-04-06T12:03:04.566Z,47.30
2019-04-06T12:05:53.665Z,47.40
2019-04-06T12:08:48.507Z,47.00
2019-04-06T12:11:27.395Z,47.10
2019-04-06T12:14:16.499Z,46.80
2019-04-06T12:16:57.091Z,47.60
2019-04-06T12:19:45.388Z,48.50
2019-04-06T12:22:40.361Z,48.80
2019-04-06T12:25:21.211Z,49.00
2019-04-06T12:28:13.298Z,48.70
2019-04-06T12:30:59.619Z,48.00
2019-04-06T12:34:07.270Z,47.80
2019-04-06T12:36:46.991Z,48.50
2019-04-06T12:39:22.638Z,48.40
2019-04-06T12:42:11.700Z,48.20
2019-04-06T12:45:15.966Z,49.90
2019-04-06T12:48:05.330Z,50.00
2019-04-06T12:50:53.163Z,50.10
2019-04-06T12:53:31.454Z,49.50
2019-04-06T12:56:20.917Z,49.90
2019-04-06T12:59:09.950Z,48.30
2019-04-06T13:02:00.495Z,47.60
2019-04-06T13:04:55.710Z,46.20
2019-04-06T13:07:43.875Z,44.70
2019-04-06T13:10:45.563Z,44.50
2019-04-06T13:13:33.224Z,43.70
2019-04-06T13:16:16.527Z,44.80
2019-04-06T13:19:08.696Z,45.00
2019-04-06T13:21:56.434Z,45.00
2019-04-06T13:24:36.875Z,44.80
2019-04-06T13:27:28.823Z,45.90
2019-04-06T13:30:16.483Z,46.30
2019-04-06T13:32:59.388Z,44.60
2019-04-06T13:36:00.831Z,44.40
2019-04-06T13:38:53.298Z,44.40
2019-04-06T13:41:45.296Z,45.20
2019-04-06T13:44:31.081Z,45.30
2019-04-06T13:47:23.453Z,44.80
2019-04-06T13:49:59.670Z,45.40
2019-04-06T13:52:48.160Z,46.50
2019-04-06T13:55:52.278Z,46.70
2019-04-06T13:58:44.347Z,46.00
2019-04-06T14:01:20.160Z,46.50
2019-04-06T14:04:09.235Z,47.30
2019-04-06T14:06:57.884Z,48.00
2019-04-06T14:09:45.802Z,47.80
2019-04-06T14:12:38.339Z,47.60
2019-04-06T14:15:22.075Z,47.20
2019-04-06T14:18:09.981Z,47.90
2019-04-06T14:20:58.062Z,48.30
2019-04-06T14:23:35.050Z,47.60
2019-04-06T14:26:24.304Z,47.20
2019-04-06T14:29:00.746Z,47.30
2019-04-06T14:31:38.782Z,47.70
2019-04-06T14:34:33.743Z,46.50
2019-04-06T14:37:29.139Z,46.90
2019-04-06T14:40:18.293Z,47.20
2019-04-06T14:43:16.237Z,47.20
2019-04-06T14:46:04.250Z,46.40
2019-04-06T14:48:54.336Z,47.20
2019-04-06T14:51:43.592Z,45.70
2019-04-06T14:54:22.618Z,45.70
2019-04-06T14:57:08.767Z,46.50
2019-04-06T14:59:58.258Z,46.00
2019-04-06T15:02:35.327Z,45.30
2019-04-06T15:05:23.946Z,45.30
2019-04-06T15:08:02.610Z,46.10
2019-04-06T15:10:58.371Z,45.10
2019-04-06T15:13:54.209Z,44.90
2019-04-06T15:16:39.100Z,45.30
2019-04-06T15:19:21.932Z,46.00
2019-04-06T15:22:09.686Z,45.90
2019-04-06T15:24:56.776Z,46.20
2019-04-06T15:27:48.659Z,45.40
2019-04-06T15:30:27.254Z,46.30
2019-04-06T15:33:16.563Z,46.30
2019-04-06T15:36:08.509Z,47.50
2019-04-06T15:39:03.561Z,48.00
2019-04-06T15:41:56.996Z,48.50
2019-04-06T15:44:41.857Z,48.80
2019-04-06T15:47:29.951Z,47.70
2019-04-06T15:50:18.476Z,47.70
2019-04-06T15:53:12.695Z,48.20
2019-04-06T15:56:13.813Z,48.40
2019-04-06T15:59:01.869Z,48.80
2019-04-06T16:02:03.798Z,49.10
2019-04-06T16:04:41.334Z,49.30
2019-04-06T16:07:16.650Z,49.80
2019-04-06T16:10:05.615Z,49.80
2019-04-06T16:12:51.686Z,50.50
2019-04-06T16:15:50.163Z,50.90
2019-04-06T16:18:45.092Z,51.00
2019-04-06T16:21:41.755Z,50.80
2019-04-06T16:24:22.074Z,50.30
2019-04-06T16:27:10.430Z,50.90
2019-04-06T16:29:53.142Z,51.70
2019-04-06T16:32:45.131Z,51.20
2019-04-06T16:35:49.339Z,51.40
2019-04-06T16:38:32.926Z,51.70
2019-04-06T16:41:25.055Z,52.30
2019-04-06T16:44:32.624Z,52.30
2019-04-06T16:47:36.891Z,52.30
2019-04-06T16:50:26.074Z,52.20
2019-04-06T16:53:13.912Z,52.80
2019-04-06T16:55:57.769Z,52.70
2019-04-06T16:58:49.921Z,53.80
2019-04-06T17:01:41.882Z,54.40
2019-04-06T17:04:26.148Z,54.20
2019-04-06T17:07:13.944Z,54.30
2019-04-06T17:10:08.915Z,54.80
2019-04-06T17:12:46.687Z,54.80
2019-04-06T17:15:48.075Z,55.00
2019-04-06T17:18:25.699Z,55.60
2019-04-06T17:21:13.753Z,56.00
2019-04-06T17:24:01.564Z,56.80
2019-04-06T17:26:43.726Z,57.00
2019-04-06T17:29:24.737Z,57.10
2019-04-06T17:32:03.343Z,57.30
2019-04-06T17:35:01.664Z,57.80
2019-04-06T17:37:56.614Z,58.80
2019-04-06T17:40:47.203Z,59.00
2019-04-06T17:43:42.126Z,59.60
2019-04-06T17:46:34.238Z,60.10
2019-04-06T17:49:31.734Z,60.70
2019-04-06T17:52:17.418Z,61.60
2019-04-06T17:55:06.854Z,62.20
2019-04-06T17:57:56.038Z,62.60
2019-04-06T18:00:45.182Z,63.80
2019-04-06T18:03:37.461Z,64.20
2019-04-06T18:06:24.552Z,64.70
2019-04-06T18:09:20.973Z,65.30
2019-04-06T18:11:59.198Z,65.40
2019-04-06T18:14:29.307Z,66.70
2019-04-06T18:16:59.343Z,66.80
2019-04-06T18:19:29.854Z,67.30
2019-04-06T18:22:00.023Z,67.80
2019-04-06T18:24:30.627Z,68.80
2019-04-06T18:27:00.723Z,69.20
2019-04-06T18:29:30.917Z,69.50
2019-04-06T18:32:19.999Z,69.40
2019-04-06T18:34:50.097Z,69.40
2019-04-06T18:37:39.134Z,69.80
2019-04-06T18:40:18.849Z,69.90
2019-04-06T18:42:49.140Z,70.20
2019-04-06T18:45:19.418Z,70.60
2019-04-06T18:47:49.752Z,70.40
2019-04-06T18:50:20.112Z,70.90
2019-04-06T18:52:50.203Z,71.20
2019-04-06T18:55:20.491Z,72.00
2019-04-06T18:57:50.680Z,72.00
2019-04-06T19:00:21.190Z,72.50
2019-04-06T19:02:51.462Z,72.70
2019-04-06T19:05:21.544Z,73.00
2019-04-06T19:07:52.040Z,73.30
2019-04-06T19:10:23.291Z,73.50
2019-04-06T19:12:53.911Z,74.20
2019-04-06T19:15:24.314Z,74.60
2019-04-06T19:17:54.434Z,75.00
2019-04-06T19:20:25.048Z,75.50
2019-04-06T19:22:55.529Z,76.10
2019-04-06T19:25:26.072Z,76.00
2019-04-06T19:27:56.374Z,75.90
2019-04-06T19:30:27.050Z,75.80
2019-04-06T19:32:57.594Z,76.10
2019-04-06T19:35:28.121Z,76.50
2019-04-06T19:37:58.443Z,76.30
2019-04-06T19:40:29.262Z,76.70
2019-04-06T19:43:00.009Z,77.00
2019-04-06T19:45:30.486Z,77.10
2019-04-06T19:48:02.084Z,77.20
2019-04-06T19:50:32.688Z,76.90
2019-04-06T19:53:02.698Z,76.40
2019-04-06T19:55:33.509Z,76.20
2019-04-06T19:58:03.606Z,77.00
2019-04-06T20:00:33.747Z,76.30
2019-04-06T20:03:04.320Z,76.30
2019-04-06T20:05:34.625Z,76.40
2019-04-06T20:08:04.917Z,76.70
2019-04-06T20:10:35.113Z,77.10
2019-04-06T20:13:05.255Z,77.30
2019-04-06T20:15:35.397Z,77.70
2019-04-06T20:18:06.889Z,78.00
2019-04-06T20:20:37.548Z,78.40
2019-04-06T20:23:07.742Z,78.60
2019-04-06T20:25:37.975Z,78.90
2019-04-06T20:28:08.070Z,79.00
2019-04-06T20:30:38.541Z,79.20
2019-04-06T20:33:08.752Z,79.30
2019-04-06T20:35:39.502Z,79.20
2019-04-06T20:38:09.724Z,79.30
2019-04-06T20:40:40.158Z,79.10
2019-04-06T20:43:10.834Z,79.00
2019-04-06T20:45:42.186Z,78.90
2019-04-06T20:48:12.882Z,79.00
2019-04-06T20:50:43.215Z,79.20
2019-04-06T20:53:13.413Z,79.40
2019-04-06T20:55:43.615Z,79.90
2019-04-06T20:58:13.869Z,79.90
2019-04-06T21:00:44.013Z,79.90
2019-04-06T21:03:14.046Z,79.80
2019-04-06T21:05:44.192Z,79.90
2019-04-06T21:08:14.467Z,79.60
2019-04-06T21:10:45.612Z,79.50
2019-04-06T21:13:15.899Z,79.50
2019-04-06T21:15:46.071Z,79.90
2019-04-06T21:18:16.570Z,80.20
2019-04-06T21:20:46.712Z,80.60
2019-04-06T21:23:17.205Z,80.90
2019-04-06T21:25:48.591Z,81.00
2019-04-06T21:28:18.687Z,81.00
2019-04-06T21:30:49.063Z,81.30
2019-04-06T21:33:19.765Z,81.50
2019-04-06T21:35:50.158Z,81.60
2019-04-06T21:38:20.410Z,82.00
2019-04-06T21:40:50.443Z,83.30
2019-04-06T21:43:20.651Z,82.60
2019-04-06T21:45:51.145Z,82.70
2019-04-06T21:48:21.339Z,82.80
2019-04-06T21:50:52.569Z,82.90
2019-04-06T21:53:23.121Z,83.00
2019-04-06T21:56:01.646Z,83.20
2019-04-06T21:58:25.528Z,83.00
2019-04-06T22:00:57.950Z,83.10
2019-04-06T22:03:28.295Z,83.70
2019-04-06T22:05:58.655Z,83.70
2019-04-06T22:08:29.468Z,83.90
2019-04-06T22:10:59.662Z,84.50
2019-04-06T22:13:29.995Z,85.00
2019-04-06T22:16:00.787Z,84.70
2019-04-06T22:18:31.166Z,85.50
2019-04-06T22:21:01.277Z,85.30
2019-04-06T22:23:41.023Z,85.50
2019-04-06T22:26:03.187Z,85.80
2019-04-06T22:28:33.401Z,86.00
2019-04-06T22:31:03.520Z,86.10
2019-04-06T22:33:33.619Z,86.20
2019-04-06T22:36:04.102Z,86.40
2019-04-06T22:38:34.229Z,86.70
2019-04-06T22:41:04.751Z,87.00
2019-04-06T22:43:35.079Z,87.00
2019-04-06T22:46:05.253Z,87.20
2019-04-06T22:48:35.788Z,87.30
2019-04-06T22:51:05.999Z,87.50
2019-04-06T22:53:36.060Z,87.70
2019-04-06T22:56:06.715Z,87.70
2019-04-06T22:58:36.943Z,87.80
2019-04-06T23:01:10.645Z,87.70
2019-04-06T23:03:59.882Z,87.60
2019-04-06T23:06:36.702Z,87.70
2019-04-06T23:09:08.313Z,87.70
2019-04-06T23:11:38.416Z,87.70
2019-04-06T23:14:08.495Z,87.60
2019-04-06T23:16:39.183Z,87.70
2019-04-06T23:19:09.683Z,87.80
2019-04-06T23:21:39.962Z,87.50
2019-04-06T23:24:10.149Z,87.80
2019-04-06T23:26:41.033Z,87.70
2019-04-06T23:29:11.257Z,87.70
2019-04-06T23:31:41.718Z,87.90
2019-04-06T23:34:11.881Z,88.10
2019-04-06T23:36:42.050Z,88.30
2019-04-06T23:39:12.361Z,88.60
2019-04-06T23:41:42.747Z,88.70
2019-04-06T23:44:13.345Z,88.80
2019-04-06T23:46:43.618Z,88.90
2019-04-06T23:49:13.710Z,89.40
2019-04-06T23:51:43.759Z,89.10
2019-04-06T23:54:13.773Z,90.00
2019-04-06T23:56:43.820Z,89.10
2019-04-06T23:59:13.876Z,89.20
